sensor_id;sensor_type;location;lat;lon;timestamp;temperature;humidity
12119;DHT22;6123;48.864;9.200;2022-11-18T00:00:47;8.90;99.90
12119;DHT22;6123;48.864;9.200;2022-11-18T00:03:13;8.90;99.90
12119;DHT22;6123;48.864;9.200;2022-11-18T00:05:39;8.90;99.90
12119;DHT22;6123;48.864;9.200;2022-11-18T00:08:04;8.90;99.90
12119;DHT22;6123;48.864;9.200;2022-11-18T00:10:30;8.90;99.90
12119;DHT22;6123;48.864;9.200;2022-11-18T00:12:56;8.80;99.90
12119;DHT22;6123;48.864;9.200;2022-11-18T00:15:40;8.70;99.90
12119;DHT22;6123;48.864;9.200;2022-11-18T00:18:06;8.90;99.90
12119;DHT22;6123;48.864;9.200;2022-11-18T00:20:33;8.90;99.90
12119;DHT22;6123;48.864;9.200;2022-11-18T00:22:58;8.90;99.90
12119;DHT22;6123;48.864;9.200;2022-11-18T00:25:24;9.00;99.90
12119;DHT22;6123;48.864;9.200;2022-11-18T00:27:52;8.90;99.90
12119;DHT22;6123;48.864;9.200;2022-11-18T00:30:18;8.90;99.90
12119;DHT22;6123;48.864;9.200;2022-11-18T00:32:46;8.90;99.90
12119;DHT22;6123;48.864;9.200;2022-11-18T00:35:12;8.90;99.90
12119;DHT22;6123;48.864;9.200;2022-11-18T00:37:39;8.90;99.90
12119;DHT22;6123;48.864;9.200;2022-11-18T00:40:05;8.90;99.90
12119;DHT22;6123;48.864;9.200;2022-11-18T00:42:31;8.90;99.90
12119;DHT22;6123;48.864;9.200;2022-11-18T00:45:21;8.70;99.90
12119;DHT22;6123;48.864;9.200;2022-11-18T00:47:47;8.90;99.90
12119;DHT22;6123;48.864;9.200;2022-11-18T00:50:13;8.90;99.90
12119;DHT22;6123;48.864;9.200;2022-11-18T00:52:39;8.90;99.90
12119;DHT22;6123;48.864;9.200;2022-11-18T00:55:05;8.80;99.90
12119;DHT22;6123;48.864;9.200;2022-11-18T00:57:30;8.90;99.90
12119;DHT22;6123;48.864;9.200;2022-11-18T00:59:56;8.80;99.90
12119;DHT22;6123;48.864;9.200;2022-11-18T01:02:21;8.80;99.90
12119;DHT22;6123;48.864;9.200;2022-11-18T01:04:49;8.80;99.90
12119;DHT22;6123;48.864;9.200;2022-11-18T01:07:15;8.70;99.90
12119;DHT22;6123;48.864;9.200;2022-11-18T01:09:40;8.70;99.90
12119;DHT22;6123;48.864;9.200;2022-11-18T01:12:09;8.80;99.90
12119;DHT22;6123;48.864;9.200;2022-11-18T01:14:54;8.80;99.90
12119;DHT22;6123;48.864;9.200;2022-11-18T01:17:21;8.80;99.90
12119;DHT22;6123;48.864;9.200;2022-11-18T01:19:52;8.80;99.90
12119;DHT22;6123;48.864;9.200;2022-11-18T01:22:17;8.80;99.90
12119;DHT22;6123;48.864;9.200;2022-11-18T01:24:43;8.70;99.90
12119;DHT22;6123;48.864;9.200;2022-11-18T01:27:08;8.70;99.90
12119;DHT22;6123;48.864;9.200;2022-11-18T01:29:35;8.70;99.90
12119;DHT22;6123;48.864;9.200;2022-11-18T01:32:00;8.70;99.90
12119;DHT22;6123;48.864;9.200;2022-11-18T01:34:29;8.70;99.90
12119;DHT22;6123;48.864;9.200;2022-11-18T01:36:55;8.80;99.90
12119;DHT22;6123;48.864;9.200;2022-11-18T01:39:23;8.80;99.90
12119;DHT22;6123;48.864;9.200;2022-11-18T01:41:48;8.70;99.90
12119;DHT22;6123;48.864;9.200;2022-11-18T01:47:18;8.80;99.90
12119;DHT22;6123;48.864;9.200;2022-11-18T01:49:44;8.70;99.90
12119;DHT22;6123;48.864;9.200;2022-11-18T01:52:10;8.70;99.90
12119;DHT22;6123;48.864;9.200;2022-11-18T01:54:38;8.70;99.90
12119;DHT22;6123;48.864;9.200;2022-11-18T01:57:09;8.70;99.90
12119;DHT22;6123;48.864;9.200;2022-11-18T01:59:43;8.60;99.90
12119;DHT22;6123;48.864;9.200;2022-11-18T02:02:12;8.60;99.90
12119;DHT22;6123;48.864;9.200;2022-11-18T02:04:41;8.60;99.90
12119;DHT22;6123;48.864;9.200;2022-11-18T02:07:07;8.60;99.90
12119;DHT22;6123;48.864;9.200;2022-11-18T02:09:36;8.60;99.90
12119;DHT22;6123;48.864;9.200;2022-11-18T02:12:02;8.60;99.90
12119;DHT22;6123;48.864;9.200;2022-11-18T02:14:36;8.50;99.90
12119;DHT22;6123;48.864;9.200;2022-11-18T02:33:58;8.60;99.90
12119;DHT22;6123;48.864;9.200;2022-11-18T02:36:52;8.60;99.90
12119;DHT22;6123;48.864;9.200;2022-11-18T02:39:30;8.60;99.90
12119;DHT22;6123;48.864;9.200;2022-11-18T02:41:58;8.60;99.90
12119;DHT22;6123;48.864;9.200;2022-11-18T02:44:26;8.60;99.90
12119;DHT22;6123;48.864;9.200;2022-11-18T02:46:59;8.60;99.90
12119;DHT22;6123;48.864;9.200;2022-11-18T02:49:35;8.60;99.90
12119;DHT22;6123;48.864;9.200;2022-11-18T02:52:03;8.60;99.90
12119;DHT22;6123;48.864;9.200;2022-11-18T02:54:32;8.70;99.90
12119;DHT22;6123;48.864;9.200;2022-11-18T02:56:59;8.70;99.90
12119;DHT22;6123;48.864;9.200;2022-11-18T02:59:27;8.70;99.90
12119;DHT22;6123;48.864;9.200;2022-11-18T03:01:53;8.70;99.90
12119;DHT22;6123;48.864;9.200;2022-11-18T03:04:20;8.60;99.90
12119;DHT22;6123;48.864;9.200;2022-11-18T03:07:24;8.60;99.90
12119;DHT22;6123;48.864;9.200;2022-11-18T03:09:52;8.60;99.90
12119;DHT22;6123;48.864;9.200;2022-11-18T03:18:14;8.60;99.90
12119;DHT22;6123;48.864;9.200;2022-11-18T03:20:51;8.60;99.90
12119;DHT22;6123;48.864;9.200;2022-11-18T03:24:19;8.60;99.90
12119;DHT22;6123;48.864;9.200;2022-11-18T03:26:33;8.50;99.90
12119;DHT22;6123;48.864;9.200;2022-11-18T03:29:01;8.40;99.90
12119;DHT22;6123;48.864;9.200;2022-11-18T03:31:39;8.30;99.90
12119;DHT22;6123;48.864;9.200;2022-11-18T03:34:48;8.30;99.90
12119;DHT22;6123;48.864;9.200;2022-11-18T03:37:09;8.30;99.90
12119;DHT22;6123;48.864;9.200;2022-11-18T03:39:39;8.30;99.90
12119;DHT22;6123;48.864;9.200;2022-11-18T03:42:20;8.30;99.90
12119;DHT22;6123;48.864;9.200;2022-11-18T03:44:51;8.40;99.90
12119;DHT22;6123;48.864;9.200;2022-11-18T03:47:42;8.50;99.90
12119;DHT22;6123;48.864;9.200;2022-11-18T03:50:19;8.40;99.90
12119;DHT22;6123;48.864;9.200;2022-11-18T03:52:47;8.40;99.90
12119;DHT22;6123;48.864;9.200;2022-11-18T03:55:19;8.40;99.90
12119;DHT22;6123;48.864;9.200;2022-11-18T04:00:36;8.30;99.90
12119;DHT22;6123;48.864;9.200;2022-11-18T04:03:04;8.30;99.90
12119;DHT22;6123;48.864;9.200;2022-11-18T04:05:39;8.30;99.90
12119;DHT22;6123;48.864;9.200;2022-11-18T04:08:13;8.30;99.90
12119;DHT22;6123;48.864;9.200;2022-11-18T04:11:12;8.30;99.90
12119;DHT22;6123;48.864;9.200;2022-11-18T04:13:56;8.20;99.90
12119;DHT22;6123;48.864;9.200;2022-11-18T04:16:22;8.20;99.90
12119;DHT22;6123;48.864;9.200;2022-11-18T04:18:48;8.30;99.90
12119;DHT22;6123;48.864;9.200;2022-11-18T04:21:14;8.20;99.90
12119;DHT22;6123;48.864;9.200;2022-11-18T04:23:39;8.30;99.90
12119;DHT22;6123;48.864;9.200;2022-11-18T04:26:07;8.20;99.90
12119;DHT22;6123;48.864;9.200;2022-11-18T04:28:33;8.20;99.90
12119;DHT22;6123;48.864;9.200;2022-11-18T04:30:59;8.20;99.90
12119;DHT22;6123;48.864;9.200;2022-11-18T04:33:27;8.20;99.90
12119;DHT22;6123;48.864;9.200;2022-11-18T04:35:52;8.30;99.90
12119;DHT22;6123;48.864;9.200;2022-11-18T04:38:18;8.30;99.90
12119;DHT22;6123;48.864;9.200;2022-11-18T04:40:45;8.20;99.90
12119;DHT22;6123;48.864;9.200;2022-11-18T04:43:11;8.10;99.90
12119;DHT22;6123;48.864;9.200;2022-11-18T04:45:36;8.10;99.90
12119;DHT22;6123;48.864;9.200;2022-11-18T04:48:02;8.10;99.90
12119;DHT22;6123;48.864;9.200;2022-11-18T04:50:27;8.10;99.90
12119;DHT22;6123;48.864;9.200;2022-11-18T04:52:53;8.10;99.90
12119;DHT22;6123;48.864;9.200;2022-11-18T04:55:19;8.10;99.90
12119;DHT22;6123;48.864;9.200;2022-11-18T04:57:44;8.00;99.90
12119;DHT22;6123;48.864;9.200;2022-11-18T05:00:10;8.00;99.90
12119;DHT22;6123;48.864;9.200;2022-11-18T05:02:36;8.00;99.90
12119;DHT22;6123;48.864;9.200;2022-11-18T05:05:02;7.90;99.90
12119;DHT22;6123;48.864;9.200;2022-11-18T05:07:33;8.00;99.90
12119;DHT22;6123;48.864;9.200;2022-11-18T05:09:58;8.00;99.90
12119;DHT22;6123;48.864;9.200;2022-11-18T05:12:27;8.00;99.90
12119;DHT22;6123;48.864;9.200;2022-11-18T05:15:11;8.00;99.90
12119;DHT22;6123;48.864;9.200;2022-11-18T05:17:37;8.10;99.90
12119;DHT22;6123;48.864;9.200;2022-11-18T05:20:03;8.10;99.90
12119;DHT22;6123;48.864;9.200;2022-11-18T05:22:29;8.00;99.90
12119;DHT22;6123;48.864;9.200;2022-11-18T05:24:54;7.90;99.90
12119;DHT22;6123;48.864;9.200;2022-11-18T05:27:24;7.90;99.90
12119;DHT22;6123;48.864;9.200;2022-11-18T05:29:52;8.00;99.90
12119;DHT22;6123;48.864;9.200;2022-11-18T05:32:18;8.00;99.90
12119;DHT22;6123;48.864;9.200;2022-11-18T05:34:46;8.00;99.90
12119;DHT22;6123;48.864;9.200;2022-11-18T05:37:13;7.90;99.90
12119;DHT22;6123;48.864;9.200;2022-11-18T05:39:39;8.00;99.90
12119;DHT22;6123;48.864;9.200;2022-11-18T05:42:07;7.90;99.90
12119;DHT22;6123;48.864;9.200;2022-11-18T05:44:52;7.90;99.90
12119;DHT22;6123;48.864;9.200;2022-11-18T05:47:20;7.90;99.90
12119;DHT22;6123;48.864;9.200;2022-11-18T05:49:49;7.90;99.90
12119;DHT22;6123;48.864;9.200;2022-11-18T05:52:15;7.90;99.90
12119;DHT22;6123;48.864;9.200;2022-11-18T05:54:47;7.90;99.90
12119;DHT22;6123;48.864;9.200;2022-11-18T05:57:13;7.90;99.90
12119;DHT22;6123;48.864;9.200;2022-11-18T05:59:38;7.90;99.90
12119;DHT22;6123;48.864;9.200;2022-11-18T06:02:17;7.90;99.90
12119;DHT22;6123;48.864;9.200;2022-11-18T06:04:56;7.90;99.90
12119;DHT22;6123;48.864;9.200;2022-11-18T06:07:41;7.90;99.90
12119;DHT22;6123;48.864;9.200;2022-11-18T06:10:21;8.00;99.90
12119;DHT22;6123;48.864;9.200;2022-11-18T06:12:50;8.00;99.90
12119;DHT22;6123;48.864;9.200;2022-11-18T06:15:20;8.00;99.90
12119;DHT22;6123;48.864;9.200;2022-11-18T06:20:24;7.90;99.90
12119;DHT22;6123;48.864;9.200;2022-11-18T06:22:54;8.00;99.90
12119;DHT22;6123;48.864;9.200;2022-11-18T06:25:21;8.00;99.90
12119;DHT22;6123;48.864;9.200;2022-11-18T06:27:48;8.00;99.90
12119;DHT22;6123;48.864;9.200;2022-11-18T06:30:15;8.00;99.90
12119;DHT22;6123;48.864;9.200;2022-11-18T06:32:44;8.00;99.90
12119;DHT22;6123;48.864;9.200;2022-11-18T06:35:12;8.10;99.90
12119;DHT22;6123;48.864;9.200;2022-11-18T06:37:43;8.10;99.90
12119;DHT22;6123;48.864;9.200;2022-11-18T06:40:12;8.00;99.90
12119;DHT22;6123;48.864;9.200;2022-11-18T06:42:37;8.00;99.90
12119;DHT22;6123;48.864;9.200;2022-11-18T06:45:21;8.00;99.90
12119;DHT22;6123;48.864;9.200;2022-11-18T06:47:49;8.00;99.90
12119;DHT22;6123;48.864;9.200;2022-11-18T06:50:15;7.90;99.90
12119;DHT22;6123;48.864;9.200;2022-11-18T06:52:43;8.00;99.90
12119;DHT22;6123;48.864;9.200;2022-11-18T06:55:09;8.00;99.90
12119;DHT22;6123;48.864;9.200;2022-11-18T06:57:34;8.00;99.90
12119;DHT22;6123;48.864;9.200;2022-11-18T07:00:00;8.00;99.90
12119;DHT22;6123;48.864;9.200;2022-11-18T07:02:26;8.10;99.90
12119;DHT22;6123;48.864;9.200;2022-11-18T07:04:51;8.10;99.90
12119;DHT22;6123;48.864;9.200;2022-11-18T07:07:17;8.00;99.90
12119;DHT22;6123;48.864;9.200;2022-11-18T07:09:43;8.00;99.90
12119;DHT22;6123;48.864;9.200;2022-11-18T07:12:09;7.90;99.90
12119;DHT22;6123;48.864;9.200;2022-11-18T07:14:34;7.80;99.90
12119;DHT22;6123;48.864;9.200;2022-11-18T07:17:00;7.90;99.90
12119;DHT22;6123;48.864;9.200;2022-11-18T07:19:26;7.90;99.90
12119;DHT22;6123;48.864;9.200;2022-11-18T07:21:51;7.90;99.90
12119;DHT22;6123;48.864;9.200;2022-11-18T07:24:17;7.90;99.90
12119;DHT22;6123;48.864;9.200;2022-11-18T07:26:43;7.90;99.90
12119;DHT22;6123;48.864;9.200;2022-11-18T07:29:09;7.90;99.90
12119;DHT22;6123;48.864;9.200;2022-11-18T07:31:35;7.90;99.90
12119;DHT22;6123;48.864;9.200;2022-11-18T07:34:03;7.90;99.90
12119;DHT22;6123;48.864;9.200;2022-11-18T07:36:29;7.90;99.90
12119;DHT22;6123;48.864;9.200;2022-11-18T07:38:57;8.00;99.90
12119;DHT22;6123;48.864;9.200;2022-11-18T07:41:24;8.10;99.90
12119;DHT22;6123;48.864;9.200;2022-11-18T07:43:57;8.10;99.90
12119;DHT22;6123;48.864;9.200;2022-11-18T07:46:34;8.10;99.90
12119;DHT22;6123;48.864;9.200;2022-11-18T07:49:01;8.10;99.90
12119;DHT22;6123;48.864;9.200;2022-11-18T07:51:32;8.00;99.90
12119;DHT22;6123;48.864;9.200;2022-11-18T07:54:07;8.00;99.90
12119;DHT22;6123;48.864;9.200;2022-11-18T07:56:33;8.10;99.90
12119;DHT22;6123;48.864;9.200;2022-11-18T07:58:59;7.90;99.90
12119;DHT22;6123;48.864;9.200;2022-11-18T08:01:25;8.00;99.90
12119;DHT22;6123;48.864;9.200;2022-11-18T08:04:02;7.90;99.90
12119;DHT22;6123;48.864;9.200;2022-11-18T08:06:32;8.00;99.90
12119;DHT22;6123;48.864;9.200;2022-11-18T08:08:59;8.10;99.90
12119;DHT22;6123;48.864;9.200;2022-11-18T08:11:25;8.00;99.90
12119;DHT22;6123;48.864;9.200;2022-11-18T08:13:50;8.00;99.90
12119;DHT22;6123;48.864;9.200;2022-11-18T08:16:21;8.10;99.90
12119;DHT22;6123;48.864;9.200;2022-11-18T08:18:48;8.00;99.90
12119;DHT22;6123;48.864;9.200;2022-11-18T08:21:17;7.90;99.90
12119;DHT22;6123;48.864;9.200;2022-11-18T08:23:54;7.90;99.90
12119;DHT22;6123;48.864;9.200;2022-11-18T08:26:22;8.00;99.90
12119;DHT22;6123;48.864;9.200;2022-11-18T08:28:51;8.10;99.90
12119;DHT22;6123;48.864;9.200;2022-11-18T08:31:20;8.10;99.90
12119;DHT22;6123;48.864;9.200;2022-11-18T08:33:46;8.00;99.90
12119;DHT22;6123;48.864;9.200;2022-11-18T08:36:15;8.00;99.90
12119;DHT22;6123;48.864;9.200;2022-11-18T08:38:41;8.00;99.90
12119;DHT22;6123;48.864;9.200;2022-11-18T08:41:20;8.00;99.90
12119;DHT22;6123;48.864;9.200;2022-11-18T08:43:49;8.10;99.90
12119;DHT22;6123;48.864;9.200;2022-11-18T08:46:15;8.10;99.90
12119;DHT22;6123;48.864;9.200;2022-11-18T08:48:40;8.20;99.90
12119;DHT22;6123;48.864;9.200;2022-11-18T08:51:10;8.30;99.90
12119;DHT22;6123;48.864;9.200;2022-11-18T08:53:35;8.30;99.90
12119;DHT22;6123;48.864;9.200;2022-11-18T08:56:01;8.20;99.90
12119;DHT22;6123;48.864;9.200;2022-11-18T08:58:27;8.30;99.90
12119;DHT22;6123;48.864;9.200;2022-11-18T09:00:55;8.30;99.90
12119;DHT22;6123;48.864;9.200;2022-11-18T09:03:21;8.30;99.90
12119;DHT22;6123;48.864;9.200;2022-11-18T09:05:48;8.40;99.90
12119;DHT22;6123;48.864;9.200;2022-11-18T09:08:14;8.40;99.90
12119;DHT22;6123;48.864;9.200;2022-11-18T09:10:40;8.40;99.90
12119;DHT22;6123;48.864;9.200;2022-11-18T09:13:06;8.40;99.90
12119;DHT22;6123;48.864;9.200;2022-11-18T09:15:31;8.30;99.90
12119;DHT22;6123;48.864;9.200;2022-11-18T09:17:57;8.30;99.90
12119;DHT22;6123;48.864;9.200;2022-11-18T09:20:23;8.30;99.90
12119;DHT22;6123;48.864;9.200;2022-11-18T09:22:49;8.40;99.90
12119;DHT22;6123;48.864;9.200;2022-11-18T09:25:15;8.20;99.90
12119;DHT22;6123;48.864;9.200;2022-11-18T09:27:41;8.20;99.90
12119;DHT22;6123;48.864;9.200;2022-11-18T09:30:09;8.30;99.90
12119;DHT22;6123;48.864;9.200;2022-11-18T09:32:35;8.40;99.90
12119;DHT22;6123;48.864;9.200;2022-11-18T09:35:00;8.40;99.90
12119;DHT22;6123;48.864;9.200;2022-11-18T09:37:26;8.40;99.90
12119;DHT22;6123;48.864;9.200;2022-11-18T09:39:52;8.50;99.90
12119;DHT22;6123;48.864;9.200;2022-11-18T09:45:47;8.60;99.90
12119;DHT22;6123;48.864;9.200;2022-11-18T09:48:18;8.40;99.90
12119;DHT22;6123;48.864;9.200;2022-11-18T09:50:47;8.40;99.90
12119;DHT22;6123;48.864;9.200;2022-11-18T09:53:23;8.40;99.90
12119;DHT22;6123;48.864;9.200;2022-11-18T09:55:51;8.40;99.90
12119;DHT22;6123;48.864;9.200;2022-11-18T09:58:21;8.40;99.90
12119;DHT22;6123;48.864;9.200;2022-11-18T10:00:48;8.50;99.90
12119;DHT22;6123;48.864;9.200;2022-11-18T10:03:25;8.50;99.90
12119;DHT22;6123;48.864;9.200;2022-11-18T10:11:17;8.60;99.90
12119;DHT22;6123;48.864;9.200;2022-11-18T10:19:40;8.30;99.90
12119;DHT22;6123;48.864;9.200;2022-11-18T10:24:53;8.40;99.90
12119;DHT22;6123;48.864;9.200;2022-11-18T10:27:19;8.60;99.90
12119;DHT22;6123;48.864;9.200;2022-11-18T10:29:51;8.60;99.90
12119;DHT22;6123;48.864;9.200;2022-11-18T10:32:19;8.70;99.90
12119;DHT22;6123;48.864;9.200;2022-11-18T10:37:30;8.80;99.90
12119;DHT22;6123;48.864;9.200;2022-11-18T10:40:00;9.60;99.90
12119;DHT22;6123;48.864;9.200;2022-11-18T10:50:43;9.20;99.90
12119;DHT22;6123;48.864;9.200;2022-11-18T10:53:29;9.20;99.90
12119;DHT22;6123;48.864;9.200;2022-11-18T10:58:28;9.20;99.90
12119;DHT22;6123;48.864;9.200;2022-11-18T11:01:04;9.20;99.90
12119;DHT22;6123;48.864;9.200;2022-11-18T11:03:33;9.20;99.90
12119;DHT22;6123;48.864;9.200;2022-11-18T11:09:03;9.30;99.90
12119;DHT22;6123;48.864;9.200;2022-11-18T11:14:43;9.20;99.90
12119;DHT22;6123;48.864;9.200;2022-11-18T11:17:20;9.10;99.90
12119;DHT22;6123;48.864;9.200;2022-11-18T11:20:15;9.10;99.90
12119;DHT22;6123;48.864;9.200;2022-11-18T11:22:43;9.10;99.90
12119;DHT22;6123;48.864;9.200;2022-11-18T11:25:18;9.10;99.90
12119;DHT22;6123;48.864;9.200;2022-11-18T11:30:23;9.10;99.90
12119;DHT22;6123;48.864;9.200;2022-11-18T11:35:33;9.20;99.90
12119;DHT22;6123;48.864;9.200;2022-11-18T11:41:05;9.40;99.90
12119;DHT22;6123;48.864;9.200;2022-11-18T11:51:44;10.00;99.90
12119;DHT22;6123;48.864;9.200;2022-11-18T11:57:23;9.60;99.90
12119;DHT22;6123;48.864;9.200;2022-11-18T12:00:02;9.60;99.90
12119;DHT22;6123;48.864;9.200;2022-11-18T12:05:41;9.80;99.90
12119;DHT22;6123;48.864;9.200;2022-11-18T12:16:10;9.80;99.90
12119;DHT22;6123;48.864;9.200;2022-11-18T12:27:05;9.90;99.90
12119;DHT22;6123;48.864;9.200;2022-11-18T12:32:11;9.90;99.90
12119;DHT22;6123;48.864;9.200;2022-11-18T12:34:44;9.90;99.90
12119;DHT22;6123;48.864;9.200;2022-11-18T12:40:10;9.80;99.90
12119;DHT22;6123;48.864;9.200;2022-11-18T12:42:57;9.70;99.90
12119;DHT22;6123;48.864;9.200;2022-11-18T12:50:53;9.60;99.90
12119;DHT22;6123;48.864;9.200;2022-11-18T12:53:48;9.60;99.90
12119;DHT22;6123;48.864;9.200;2022-11-18T12:58:47;9.60;99.90
12119;DHT22;6123;48.864;9.200;2022-11-18T13:01:17;9.50;99.90
12119;DHT22;6123;48.864;9.200;2022-11-18T13:03:45;9.50;99.90
12119;DHT22;6123;48.864;9.200;2022-11-18T13:06:31;9.50;99.90
12119;DHT22;6123;48.864;9.200;2022-11-18T13:09:02;9.50;99.90
12119;DHT22;6123;48.864;9.200;2022-11-18T13:11:31;9.40;99.90
12119;DHT22;6123;48.864;9.200;2022-11-18T13:14:32;9.40;99.90
12119;DHT22;6123;48.864;9.200;2022-11-18T13:17:24;9.40;99.90
12119;DHT22;6123;48.864;9.200;2022-11-18T13:20:33;9.50;99.90
12119;DHT22;6123;48.864;9.200;2022-11-18T13:25:54;9.60;99.90
12119;DHT22;6123;48.864;9.200;2022-11-18T13:33:44;10.10;99.90
12119;DHT22;6123;48.864;9.200;2022-11-18T13:36:29;10.00;99.90
12119;DHT22;6123;48.864;9.200;2022-11-18T13:39:03;11.00;99.90
12119;DHT22;6123;48.864;9.200;2022-11-18T13:41:32;10.70;99.90
12119;DHT22;6123;48.864;9.200;2022-11-18T13:44:22;10.70;99.90
12119;DHT22;6123;48.864;9.200;2022-11-18T13:47:13;10.90;99.90
12119;DHT22;6123;48.864;9.200;2022-11-18T13:50:00;10.80;99.90
12119;DHT22;6123;48.864;9.200;2022-11-18T13:53:08;10.80;99.90
12119;DHT22;6123;48.864;9.200;2022-11-18T13:55:47;10.40;99.90
12119;DHT22;6123;48.864;9.200;2022-11-18T14:00:42;10.20;99.90
12119;DHT22;6123;48.864;9.200;2022-11-18T14:03:24;10.20;99.90
12119;DHT22;6123;48.864;9.200;2022-11-18T14:05:56;10.10;99.90
12119;DHT22;6123;48.864;9.200;2022-11-18T14:08:36;10.40;99.90
12119;DHT22;6123;48.864;9.200;2022-11-18T14:11:05;10.70;99.90
12119;DHT22;6123;48.864;9.200;2022-11-18T14:13:36;10.40;99.90
12119;DHT22;6123;48.864;9.200;2022-11-18T14:18:45;9.90;99.90
12119;DHT22;6123;48.864;9.200;2022-11-18T14:21:11;9.90;99.90
12119;DHT22;6123;48.864;9.200;2022-11-18T14:23:41;9.90;99.90
12119;DHT22;6123;48.864;9.200;2022-11-18T14:26:08;9.80;99.90
12119;DHT22;6123;48.864;9.200;2022-11-18T14:28:38;9.80;99.90
12119;DHT22;6123;48.864;9.200;2022-11-18T14:31:24;9.70;99.90
12119;DHT22;6123;48.864;9.200;2022-11-18T14:36:39;9.60;99.90
12119;DHT22;6123;48.864;9.200;2022-11-18T14:41:45;9.60;99.90
12119;DHT22;6123;48.864;9.200;2022-11-18T14:44:11;9.60;99.90
12119;DHT22;6123;48.864;9.200;2022-11-18T14:46:42;9.70;99.90
12119;DHT22;6123;48.864;9.200;2022-11-18T14:49:12;9.70;99.90
12119;DHT22;6123;48.864;9.200;2022-11-18T14:51:39;9.60;99.90
12119;DHT22;6123;48.864;9.200;2022-11-18T14:54:04;9.60;99.90
12119;DHT22;6123;48.864;9.200;2022-11-18T14:56:31;9.60;99.90
12119;DHT22;6123;48.864;9.200;2022-11-18T14:58:57;9.60;99.90
12119;DHT22;6123;48.864;9.200;2022-11-18T15:01:25;9.50;99.90
12119;DHT22;6123;48.864;9.200;2022-11-18T15:03:54;9.60;99.90
12119;DHT22;6123;48.864;9.200;2022-11-18T15:06:21;9.50;99.90
12119;DHT22;6123;48.864;9.200;2022-11-18T15:08:49;9.40;99.90
12119;DHT22;6123;48.864;9.200;2022-11-18T15:11:15;9.50;99.90
12119;DHT22;6123;48.864;9.200;2022-11-18T15:13:43;9.50;99.90
12119;DHT22;6123;48.864;9.200;2022-11-18T15:18:42;9.30;99.90
12119;DHT22;6123;48.864;9.200;2022-11-18T15:21:08;9.30;99.90
12119;DHT22;6123;48.864;9.200;2022-11-18T15:23:34;9.30;99.90
12119;DHT22;6123;48.864;9.200;2022-11-18T15:26:00;9.30;99.90
12119;DHT22;6123;48.864;9.200;2022-11-18T15:28:28;9.30;99.90
12119;DHT22;6123;48.864;9.200;2022-11-18T15:30:53;9.30;99.90
12119;DHT22;6123;48.864;9.200;2022-11-18T15:33:19;9.30;99.90
12119;DHT22;6123;48.864;9.200;2022-11-18T15:35:45;9.30;99.90
12119;DHT22;6123;48.864;9.200;2022-11-18T15:38:12;9.30;99.90
12119;DHT22;6123;48.864;9.200;2022-11-18T15:40:38;9.30;99.90
12119;DHT22;6123;48.864;9.200;2022-11-18T15:43:04;9.30;99.90
12119;DHT22;6123;48.864;9.200;2022-11-18T15:45:30;9.30;99.90
12119;DHT22;6123;48.864;9.200;2022-11-18T15:47:58;9.30;99.90
12119;DHT22;6123;48.864;9.200;2022-11-18T15:50:23;9.20;99.90
12119;DHT22;6123;48.864;9.200;2022-11-18T15:52:51;9.10;99.90
12119;DHT22;6123;48.864;9.200;2022-11-18T15:55:20;9.10;99.90
12119;DHT22;6123;48.864;9.200;2022-11-18T15:57:45;9.10;99.90
12119;DHT22;6123;48.864;9.200;2022-11-18T16:00:12;9.10;99.90
12119;DHT22;6123;48.864;9.200;2022-11-18T16:02:37;9.10;99.90
12119;DHT22;6123;48.864;9.200;2022-11-18T16:05:03;9.10;99.90
12119;DHT22;6123;48.864;9.200;2022-11-18T16:07:29;9.20;99.90
12119;DHT22;6123;48.864;9.200;2022-11-18T16:09:54;9.10;99.90
12119;DHT22;6123;48.864;9.200;2022-11-18T16:12:39;9.10;99.90
12119;DHT22;6123;48.864;9.200;2022-11-18T16:15:16;9.10;99.90
12119;DHT22;6123;48.864;9.200;2022-11-18T16:18:02;9.10;99.90
12119;DHT22;6123;48.864;9.200;2022-11-18T16:20:28;9.20;99.90
12119;DHT22;6123;48.864;9.200;2022-11-18T16:22:54;9.20;99.90
12119;DHT22;6123;48.864;9.200;2022-11-18T16:25:21;9.70;99.90
12119;DHT22;6123;48.864;9.200;2022-11-18T16:27:47;9.30;99.90
12119;DHT22;6123;48.864;9.200;2022-11-18T16:30:13;9.30;99.90
12119;DHT22;6123;48.864;9.200;2022-11-18T16:32:58;9.20;99.90
12119;DHT22;6123;48.864;9.200;2022-11-18T16:35:25;9.20;99.90
12119;DHT22;6123;48.864;9.200;2022-11-18T16:37:50;9.20;99.90
12119;DHT22;6123;48.864;9.200;2022-11-18T16:40:19;9.30;99.90
12119;DHT22;6123;48.864;9.200;2022-11-18T16:42:50;9.30;99.90
12119;DHT22;6123;48.864;9.200;2022-11-18T16:45:19;9.20;99.90
12119;DHT22;6123;48.864;9.200;2022-11-18T16:47:47;9.20;99.90
12119;DHT22;6123;48.864;9.200;2022-11-18T16:50:15;9.20;99.90
12119;DHT22;6123;48.864;9.200;2022-11-18T16:52:41;9.20;99.90
12119;DHT22;6123;48.864;9.200;2022-11-18T16:55:06;9.20;99.90
12119;DHT22;6123;48.864;9.200;2022-11-18T16:57:34;9.20;99.90
12119;DHT22;6123;48.864;9.200;2022-11-18T17:00:00;9.10;99.90
12119;DHT22;6123;48.864;9.200;2022-11-18T17:02:26;9.10;99.90
12119;DHT22;6123;48.864;9.200;2022-11-18T17:04:54;9.10;99.90
12119;DHT22;6123;48.864;9.200;2022-11-18T17:07:22;9.00;99.90
12119;DHT22;6123;48.864;9.200;2022-11-18T17:09:48;9.10;99.90
12119;DHT22;6123;48.864;9.200;2022-11-18T17:12:13;9.00;99.90
12119;DHT22;6123;48.864;9.200;2022-11-18T17:14:39;9.00;99.90
12119;DHT22;6123;48.864;9.200;2022-11-18T17:17:08;9.00;99.90
12119;DHT22;6123;48.864;9.200;2022-11-18T17:19:33;9.00;99.90
12119;DHT22;6123;48.864;9.200;2022-11-18T17:21:59;9.00;99.90
12119;DHT22;6123;48.864;9.200;2022-11-18T17:24:27;9.00;99.90
12119;DHT22;6123;48.864;9.200;2022-11-18T17:26:55;9.00;99.90
12119;DHT22;6123;48.864;9.200;2022-11-18T17:29:23;8.90;99.90
12119;DHT22;6123;48.864;9.200;2022-11-18T17:31:51;8.90;99.90
12119;DHT22;6123;48.864;9.200;2022-11-18T17:34:18;8.90;99.90
12119;DHT22;6123;48.864;9.200;2022-11-18T17:36:46;8.90;99.90
12119;DHT22;6123;48.864;9.200;2022-11-18T17:39:14;8.90;99.90
12119;DHT22;6123;48.864;9.200;2022-11-18T17:41:41;8.80;99.90
12119;DHT22;6123;48.864;9.200;2022-11-18T17:44:28;8.80;99.90
12119;DHT22;6123;48.864;9.200;2022-11-18T17:46:54;8.80;99.90
12119;DHT22;6123;48.864;9.200;2022-11-18T17:49:19;8.80;99.90
12119;DHT22;6123;48.864;9.200;2022-11-18T17:51:49;9.60;99.90
12119;DHT22;6123;48.864;9.200;2022-11-18T17:54:15;8.70;99.90
12119;DHT22;6123;48.864;9.200;2022-11-18T17:56:43;8.70;99.90
12119;DHT22;6123;48.864;9.200;2022-11-18T17:59:09;8.70;99.90
12119;DHT22;6123;48.864;9.200;2022-11-18T18:01:35;8.80;99.90
12119;DHT22;6123;48.864;9.200;2022-11-18T18:04:01;8.80;99.90
12119;DHT22;6123;48.864;9.200;2022-11-18T18:06:26;8.90;99.90
12119;DHT22;6123;48.864;9.200;2022-11-18T18:08:56;8.80;99.90
12119;DHT22;6123;48.864;9.200;2022-11-18T18:11:22;8.80;99.90
12119;DHT22;6123;48.864;9.200;2022-11-18T18:13:48;8.80;99.90
12119;DHT22;6123;48.864;9.200;2022-11-18T18:16:35;8.80;99.90
12119;DHT22;6123;48.864;9.200;2022-11-18T18:19:02;8.80;99.90
12119;DHT22;6123;48.864;9.200;2022-11-18T18:21:31;8.80;99.90
12119;DHT22;6123;48.864;9.200;2022-11-18T18:23:57;8.70;99.90
12119;DHT22;6123;48.864;9.200;2022-11-18T18:26:23;8.70;99.90
12119;DHT22;6123;48.864;9.200;2022-11-18T18:28:51;8.70;99.90
12119;DHT22;6123;48.864;9.200;2022-11-18T18:31:17;8.70;99.90
12119;DHT22;6123;48.864;9.200;2022-11-18T18:33:43;8.70;99.90
12119;DHT22;6123;48.864;9.200;2022-11-18T18:36:12;8.70;99.90
12119;DHT22;6123;48.864;9.200;2022-11-18T18:38:39;9.20;99.90
12119;DHT22;6123;48.864;9.200;2022-11-18T18:41:10;8.70;99.90